SXS8DG LTBJ-EDLW
Flight info
| Callsign | SXS8DG |
|---|---|
| Flight time | 2h 55m |
| Altitude | 34000 |
| Route | VEXOL UY134 NEMIS UL608 GIKAS DCT FSK UN128 RUGAS DCT RAXAD DCT SOSEK DCT BABIT/N0453F340 DCT SASAL DCT DEXIT DCT LULAR DCT KULOK DCT RUNEN DCT FULNO/N0441F300 T842 IDEWE/N0403F240 T842 ADEMI ADEMI2A |
| Aircraft | B738/M-SDE2E3FGHIRWXY/LB1 |
Departure
| Time | 2026-05-07 15:17 |
|---|---|
| Airport | Adnan Menderes International Airport (LTBJ) |
Arrival
| Time | 2026-05-07 18:12 |
|---|---|
| Airport | Dortmund Airport (EDLW) |
| Time | Latitude | Longitude | Altitude | Speed | Heading |
|---|---|---|---|---|---|
| 2026-05-07 14:54 | 38.29151 | 27.15101 | 410 ft | 0 kts | 257° |
| 2026-05-07 15:07 | 38.29151 | 27.15103 | 410 ft | 2 kts | 257° |
| 2026-05-07 15:07 | 38.29156 | 27.15129 | 410 ft | 3 kts | 257° |
| 2026-05-07 15:07 | 38.29161 | 27.15153 | 407 ft | 3 kts | 245° |
| 2026-05-07 15:07 | 38.29173 | 27.15174 | 408 ft | 3 kts | 200° |
| 2026-05-07 15:08 | 38.29193 | 27.15176 | 408 ft | 3 kts | 167° |
| 2026-05-07 15:08 | 38.29207 | 27.15171 | 407 ft | 0 kts | 166° |
| 2026-05-07 15:10 | 38.29205 | 27.15172 | 407 ft | 1 kts | 166° |
| 2026-05-07 15:10 | 38.29190 | 27.15177 | 405 ft | 4 kts | 167° |
| 2026-05-07 15:11 | 38.29154 | 27.15188 | 408 ft | 7 kts | 166° |
| 2026-05-07 15:11 | 38.29100 | 27.15204 | 410 ft | 8 kts | 167° |
| 2026-05-07 15:11 | 38.29046 | 27.15220 | 410 ft | 8 kts | 167° |
| 2026-05-07 15:11 | 38.29013 | 27.15265 | 410 ft | 8 kts | 99° |
| 2026-05-07 15:12 | 38.28974 | 27.15307 | 410 ft | 8 kts | 164° |
| 2026-05-07 15:12 | 38.28921 | 27.15324 | 410 ft | 8 kts | 166° |
| 2026-05-07 15:12 | 38.28866 | 27.15340 | 408 ft | 9 kts | 166° |
| 2026-05-07 15:12 | 38.28793 | 27.15362 | 413 ft | 13 kts | 166° |
| 2026-05-07 15:13 | 38.28695 | 27.15392 | 418 ft | 16 kts | 167° |
| 2026-05-07 15:13 | 38.28581 | 27.15427 | 412 ft | 17 kts | 167° |
| 2026-05-07 15:13 | 38.28468 | 27.15461 | 410 ft | 16 kts | 166° |
| 2026-05-07 15:13 | 38.28360 | 27.15494 | 413 ft | 16 kts | 167° |
| 2026-05-07 15:14 | 38.28256 | 27.15524 | 418 ft | 15 kts | 167° |
| 2026-05-07 15:14 | 38.28156 | 27.15554 | 414 ft | 14 kts | 165° |
| 2026-05-07 15:14 | 38.28061 | 27.15584 | 412 ft | 14 kts | 166° |
| 2026-05-07 15:14 | 38.27970 | 27.15613 | 414 ft | 13 kts | 165° |
| 2026-05-07 15:15 | 38.27882 | 27.15639 | 413 ft | 13 kts | 167° |
| 2026-05-07 15:15 | 38.27798 | 27.15664 | 414 ft | 11 kts | 167° |
| 2026-05-07 15:15 | 38.27763 | 27.15735 | 411 ft | 11 kts | 76° |
| 2026-05-07 15:15 | 38.27781 | 27.15830 | 414 ft | 11 kts | 77° |
| 2026-05-07 15:16 | 38.27804 | 27.15909 | 411 ft | 9 kts | 34° |
| 2026-05-07 15:16 | 38.27837 | 27.15905 | 407 ft | 0 kts | 346° |
| 2026-05-07 15:16 | 38.27838 | 27.15904 | 408 ft | 1 kts | 346° |
| 2026-05-07 15:16 | 38.27964 | 27.15864 | 416 ft | 50 kts | 347° |
| 2026-05-07 15:17 | 38.28533 | 27.15693 | 420 ft | 116 kts | 347° |
| 2026-05-07 15:17 | 38.29513 | 27.15388 | 427 ft | 170 kts | 343° |
| 2026-05-07 15:17 | 38.30726 | 27.14999 | 893 ft | 184 kts | 344° |
| 2026-05-07 15:17 | 38.31990 | 27.14629 | 1620 ft | 189 kts | 345° |
| 2026-05-07 15:18 | 38.33288 | 27.14267 | 2411 ft | 194 kts | 345° |
| 2026-05-07 15:18 | 38.34665 | 27.13876 | 2737 ft | 213 kts | 346° |
| 2026-05-07 15:18 | 38.36156 | 27.13490 | 2982 ft | 222 kts | 346° |
| 2026-05-07 15:18 | 38.37616 | 27.12859 | 3266 ft | 227 kts | 323° |
| 2026-05-07 15:19 | 38.38610 | 27.11305 | 3575 ft | 227 kts | 291° |
| 2026-05-07 15:19 | 38.39058 | 27.09388 | 4057 ft | 227 kts | 276° |
| 2026-05-07 15:19 | 38.39034 | 27.07332 | 4341 ft | 238 kts | 264° |
| 2026-05-07 15:19 | 38.38898 | 27.05195 | 4703 ft | 247 kts | 265° |
| 2026-05-07 15:20 | 38.38765 | 27.02898 | 4755 ft | 273 kts | 264° |
| 2026-05-07 15:20 | 38.38230 | 27.00580 | 5314 ft | 275 kts | 243° |
| 2026-05-07 15:20 | 38.37348 | 26.98429 | 5995 ft | 275 kts | 243° |
| 2026-05-07 15:20 | 38.36477 | 26.96227 | 6539 ft | 280 kts | 244° |
| 2026-05-07 15:21 | 38.35622 | 26.94012 | 7233 ft | 278 kts | 245° |
| 2026-05-07 15:21 | 38.34780 | 26.91813 | 7986 ft | 274 kts | 245° |
| 2026-05-07 15:21 | 38.33937 | 26.89612 | 8560 ft | 281 kts | 246° |
| 2026-05-07 15:21 | 38.33073 | 26.87346 | 9003 ft | 286 kts | 245° |
| 2026-05-07 15:22 | 38.32399 | 26.84981 | 9234 ft | 287 kts | 264° |
| 2026-05-07 15:22 | 38.32394 | 26.82433 | 9773 ft | 287 kts | 274° |
| 2026-05-07 15:22 | 38.32508 | 26.79916 | 10499 ft | 287 kts | 275° |
| 2026-05-07 15:22 | 38.32640 | 26.77292 | 10663 ft | 308 kts | 275° |
| 2026-05-07 15:23 | 38.32779 | 26.74488 | 10824 ft | 327 kts | 274° |
| 2026-05-07 15:23 | 38.32918 | 26.71512 | 10976 ft | 346 kts | 274° |
| 2026-05-07 15:23 | 38.33054 | 26.68433 | 11240 ft | 358 kts | 274° |
| 2026-05-07 15:23 | 38.33188 | 26.65243 | 11758 ft | 363 kts | 274° |
| 2026-05-07 15:24 | 38.33319 | 26.62032 | 12421 ft | 363 kts | 274° |
| 2026-05-07 15:24 | 38.33447 | 26.58812 | 13063 ft | 365 kts | 274° |
| 2026-05-07 15:24 | 38.33575 | 26.55570 | 13698 ft | 367 kts | 274° |
| 2026-05-07 15:24 | 38.33702 | 26.52322 | 14322 ft | 369 kts | 274° |
| 2026-05-07 15:25 | 38.33831 | 26.49020 | 14707 ft | 377 kts | 274° |
| 2026-05-07 15:25 | 38.33961 | 26.45664 | 15209 ft | 381 kts | 274° |
| 2026-05-07 15:25 | 38.34090 | 26.42285 | 15824 ft | 382 kts | 274° |
| 2026-05-07 15:25 | 38.34218 | 26.38897 | 16408 ft | 384 kts | 274° |
| 2026-05-07 15:26 | 38.34346 | 26.35485 | 16955 ft | 387 kts | 274° |
| 2026-05-07 15:26 | 38.34475 | 26.32048 | 17494 ft | 390 kts | 274° |
| 2026-05-07 15:26 | 38.34604 | 26.28584 | 18029 ft | 393 kts | 274° |
| 2026-05-07 15:26 | 38.34733 | 26.25103 | 18537 ft | 395 kts | 273° |
| 2026-05-07 15:27 | 38.34861 | 26.21605 | 19043 ft | 396 kts | 273° |
| 2026-05-07 15:27 | 38.34956 | 26.18093 | 19497 ft | 399 kts | 271° |
| 2026-05-07 15:27 | 38.34955 | 26.14550 | 19939 ft | 401 kts | 271° |
| 2026-05-07 15:27 | 38.35049 | 26.10987 | 20369 ft | 404 kts | 275° |
| 2026-05-07 15:28 | 38.35296 | 26.07405 | 20816 ft | 406 kts | 276° |
| 2026-05-07 15:28 | 38.35589 | 26.03816 | 21318 ft | 408 kts | 276° |
| 2026-05-07 15:28 | 38.35880 | 26.00210 | 21744 ft | 411 kts | 276° |
| 2026-05-07 15:28 | 38.36156 | 25.96577 | 22159 ft | 413 kts | 276° |
| 2026-05-07 15:29 | 38.36420 | 25.92922 | 22582 ft | 415 kts | 276° |
| 2026-05-07 15:29 | 38.36677 | 25.89259 | 23024 ft | 416 kts | 276° |
| 2026-05-07 15:29 | 38.36930 | 25.85581 | 23445 ft | 418 kts | 275° |
| 2026-05-07 15:29 | 38.37373 | 25.81920 | 23768 ft | 420 kts | 287° |
| 2026-05-07 15:30 | 38.38606 | 25.78539 | 24073 ft | 423 kts | 301° |
| 2026-05-07 15:30 | 38.40433 | 25.75594 | 24372 ft | 428 kts | 314° |
| 2026-05-07 15:30 | 38.42764 | 25.73192 | 24617 ft | 434 kts | 321° |
| 2026-05-07 15:30 | 38.45206 | 25.70908 | 24901 ft | 436 kts | 321° |
| 2026-05-07 15:31 | 38.47647 | 25.68594 | 25202 ft | 438 kts | 321° |
| 2026-05-07 15:31 | 38.50081 | 25.66248 | 25498 ft | 440 kts | 321° |
| 2026-05-07 15:31 | 38.52521 | 25.63875 | 25785 ft | 442 kts | 320° |
| 2026-05-07 15:31 | 38.54965 | 25.61483 | 26093 ft | 443 kts | 320° |
| 2026-05-07 15:32 | 38.57413 | 25.59081 | 26349 ft | 445 kts | 320° |
| 2026-05-07 15:32 | 38.59875 | 25.56663 | 26625 ft | 447 kts | 320° |
| 2026-05-07 15:32 | 38.62349 | 25.54231 | 26886 ft | 449 kts | 320° |
| 2026-05-07 15:32 | 38.64831 | 25.51792 | 27217 ft | 450 kts | 320° |
| 2026-05-07 15:33 | 38.67304 | 25.49359 | 27640 ft | 448 kts | 320° |
| 2026-05-07 15:33 | 38.69776 | 25.46926 | 27966 ft | 449 kts | 320° |
| 2026-05-07 15:33 | 38.72254 | 25.44485 | 28266 ft | 450 kts | 320° |
| 2026-05-07 15:33 | 38.74730 | 25.42043 | 28649 ft | 449 kts | 320° |
| 2026-05-07 15:34 | 38.77201 | 25.39605 | 29060 ft | 448 kts | 320° |
| 2026-05-07 15:34 | 38.79666 | 25.37169 | 29427 ft | 447 kts | 321° |
| 2026-05-07 15:34 | 38.82133 | 25.34730 | 29768 ft | 448 kts | 321° |
| 2026-05-07 15:34 | 38.84599 | 25.32289 | 30128 ft | 448 kts | 320° |
| 2026-05-07 15:35 | 38.87058 | 25.29853 | 30463 ft | 446 kts | 320° |
| 2026-05-07 15:35 | 38.89513 | 25.27419 | 30837 ft | 444 kts | 320° |
| 2026-05-07 15:35 | 38.91946 | 25.25005 | 31251 ft | 441 kts | 320° |
| 2026-05-07 15:35 | 38.94361 | 25.22607 | 31712 ft | 436 kts | 320° |
| 2026-05-07 15:36 | 38.96758 | 25.20225 | 32006 ft | 436 kts | 320° |
| 2026-05-07 15:36 | 38.99164 | 25.17829 | 32117 ft | 440 kts | 320° |
| 2026-05-07 15:36 | 39.04022 | 25.12987 | 32113 ft | 442 kts | 320° |
| 2026-05-07 15:37 | 39.08858 | 25.08162 | 32095 ft | 437 kts | 320° |
| 2026-05-07 15:37 | 39.13617 | 25.03403 | 32121 ft | 436 kts | 320° |
| 2026-05-07 15:38 | 39.18404 | 24.98607 | 32117 ft | 436 kts | 320° |
| 2026-05-07 15:38 | 39.23190 | 24.93804 | 32103 ft | 436 kts | 320° |
| 2026-05-07 15:39 | 39.27979 | 24.88983 | 32116 ft | 437 kts | 320° |
| 2026-05-07 15:39 | 39.32776 | 24.84145 | 32122 ft | 438 kts | 320° |
| 2026-05-07 15:40 | 39.37582 | 24.79290 | 32105 ft | 439 kts | 319° |
| 2026-05-07 15:40 | 39.42397 | 24.74416 | 32104 ft | 440 kts | 319° |
| 2026-05-07 15:41 | 39.47219 | 24.69527 | 32117 ft | 441 kts | 319° |
| 2026-05-07 15:41 | 39.52055 | 24.64615 | 32114 ft | 443 kts | 320° |
| 2026-05-07 15:42 | 39.56906 | 24.59679 | 32108 ft | 444 kts | 320° |
| 2026-05-07 15:42 | 39.61772 | 24.54718 | 32114 ft | 446 kts | 320° |
| 2026-05-07 15:43 | 39.65823 | 24.50580 | 32106 ft | 446 kts | 319° |
| 2026-05-07 15:43 | 39.70706 | 24.45584 | 32108 ft | 447 kts | 319° |
| 2026-05-07 15:44 | 39.75595 | 24.40572 | 32119 ft | 448 kts | 320° |
| 2026-05-07 15:44 | 39.80487 | 24.35549 | 32104 ft | 448 kts | 319° |
| 2026-05-07 15:45 | 39.85379 | 24.30515 | 32108 ft | 449 kts | 319° |
| 2026-05-07 15:45 | 39.90274 | 24.25470 | 32106 ft | 449 kts | 319° |
| 2026-05-07 15:46 | 39.97612 | 24.17887 | 32105 ft | 449 kts | 319° |
| 2026-05-07 15:47 | 40.02493 | 24.12832 | 32112 ft | 448 kts | 319° |
| 2026-05-07 15:47 | 40.07379 | 24.07762 | 32105 ft | 449 kts | 319° |
| 2026-05-07 15:48 | 40.12258 | 24.02689 | 32108 ft | 448 kts | 319° |
| 2026-05-07 15:48 | 40.17140 | 23.97604 | 32104 ft | 449 kts | 318° |
| 2026-05-07 15:49 | 40.22016 | 23.92516 | 32105 ft | 449 kts | 318° |
| 2026-05-07 15:49 | 40.26896 | 23.87414 | 32106 ft | 448 kts | 318° |
| 2026-05-07 15:50 | 40.31767 | 23.82311 | 32108 ft | 448 kts | 318° |
| 2026-05-07 15:50 | 40.36628 | 23.77209 | 32104 ft | 448 kts | 318° |
| 2026-05-07 15:51 | 40.41483 | 23.72105 | 32115 ft | 447 kts | 318° |
| 2026-05-07 15:51 | 40.46325 | 23.67004 | 32108 ft | 446 kts | 318° |
| 2026-05-07 15:52 | 40.51155 | 23.61905 | 32113 ft | 445 kts | 318° |
| 2026-05-07 15:52 | 40.55945 | 23.56839 | 32112 ft | 445 kts | 318° |
| 2026-05-07 15:53 | 40.60768 | 23.51729 | 32123 ft | 445 kts | 318° |
| 2026-05-07 15:53 | 40.65595 | 23.46604 | 32116 ft | 446 kts | 318° |
| 2026-05-07 15:54 | 40.70431 | 23.41460 | 32148 ft | 448 kts | 318° |
| 2026-05-07 15:54 | 40.75298 | 23.36272 | 32106 ft | 451 kts | 317° |
| 2026-05-07 15:55 | 40.80167 | 23.31075 | 32114 ft | 449 kts | 317° |
| 2026-05-07 15:55 | 40.85020 | 23.25883 | 32113 ft | 448 kts | 317° |
| 2026-05-07 15:56 | 40.89851 | 23.20705 | 32123 ft | 446 kts | 317° |
| 2026-05-07 15:56 | 40.94667 | 23.15532 | 32127 ft | 446 kts | 317° |
| 2026-05-07 15:57 | 40.99476 | 23.10356 | 32137 ft | 445 kts | 317° |
| 2026-05-07 15:57 | 41.04279 | 23.05176 | 32133 ft | 445 kts | 317° |
| 2026-05-07 15:58 | 41.09052 | 23.00021 | 32123 ft | 446 kts | 317° |
| 2026-05-07 15:58 | 41.14146 | 22.95194 | 32145 ft | 449 kts | 324° |
| 2026-05-07 15:59 | 41.19469 | 22.90733 | 32280 ft | 457 kts | 324° |
| 2026-05-07 15:59 | 41.22145 | 22.88461 | 32545 ft | 456 kts | 323° |
| 2026-05-07 15:59 | 41.24802 | 22.86171 | 32956 ft | 453 kts | 323° |
| 2026-05-07 15:59 | 41.27393 | 22.83916 | 33308 ft | 451 kts | 323° |
| 2026-05-07 16:00 | 41.30013 | 22.81627 | 33603 ft | 450 kts | 323° |
| 2026-05-07 16:00 | 41.32649 | 22.79360 | 33821 ft | 453 kts | 326° |
| 2026-05-07 16:00 | 41.35476 | 22.77462 | 34059 ft | 456 kts | 334° |
| 2026-05-07 16:01 | 41.41334 | 22.74297 | 34150 ft | 451 kts | 335° |
| 2026-05-07 16:01 | 41.47111 | 22.71220 | 34137 ft | 444 kts | 334° |
| 2026-05-07 16:02 | 41.52831 | 22.68095 | 34134 ft | 445 kts | 334° |
| 2026-05-07 16:02 | 41.58560 | 22.64921 | 34136 ft | 446 kts | 334° |
| 2026-05-07 16:03 | 41.64301 | 22.61726 | 34139 ft | 448 kts | 334° |
| 2026-05-07 16:03 | 41.70072 | 22.58510 | 34120 ft | 451 kts | 334° |
| 2026-05-07 16:04 | 41.75862 | 22.55273 | 34131 ft | 452 kts | 334° |
| 2026-05-07 16:04 | 41.81692 | 22.52015 | 34122 ft | 455 kts | 334° |
| 2026-05-07 16:05 | 41.87535 | 22.48746 | 34121 ft | 456 kts | 334° |
| 2026-05-07 16:05 | 41.93393 | 22.45457 | 34133 ft | 457 kts | 334° |
| 2026-05-07 16:06 | 41.99227 | 22.42178 | 34131 ft | 450 kts | 333° |
| 2026-05-07 16:06 | 42.04962 | 22.38948 | 34117 ft | 445 kts | 333° |
| 2026-05-07 16:07 | 42.10675 | 22.35719 | 34121 ft | 445 kts | 333° |
| 2026-05-07 16:07 | 42.16378 | 22.32490 | 34110 ft | 445 kts | 333° |
| 2026-05-07 16:08 | 42.22091 | 22.29252 | 34122 ft | 445 kts | 333° |
| 2026-05-07 16:08 | 42.27810 | 22.26003 | 34106 ft | 446 kts | 333° |
| 2026-05-07 16:09 | 42.33371 | 22.22356 | 34123 ft | 442 kts | 324° |
| 2026-05-07 16:09 | 42.38553 | 22.17902 | 34105 ft | 441 kts | 323° |
| 2026-05-07 16:10 | 42.43708 | 22.13383 | 34120 ft | 442 kts | 323° |
| 2026-05-07 16:10 | 42.48893 | 22.08898 | 34102 ft | 442 kts | 324° |
| 2026-05-07 16:11 | 42.54055 | 22.04470 | 34101 ft | 442 kts | 324° |
| 2026-05-07 16:11 | 42.59261 | 22.00008 | 34095 ft | 443 kts | 324° |
| 2026-05-07 16:12 | 42.64471 | 21.95535 | 34082 ft | 443 kts | 324° |
| 2026-05-07 16:12 | 42.69671 | 21.91059 | 34083 ft | 443 kts | 324° |
| 2026-05-07 16:13 | 42.74882 | 21.86564 | 34082 ft | 443 kts | 324° |
| 2026-05-07 16:13 | 42.80093 | 21.82060 | 34089 ft | 444 kts | 324° |
| 2026-05-07 16:14 | 42.85309 | 21.77542 | 34099 ft | 444 kts | 324° |
| 2026-05-07 16:14 | 42.90516 | 21.73024 | 34089 ft | 443 kts | 324° |
| 2026-05-07 16:15 | 42.95712 | 21.68506 | 34085 ft | 442 kts | 324° |
| 2026-05-07 16:15 | 43.00898 | 21.63987 | 34074 ft | 442 kts | 324° |
| 2026-05-07 16:16 | 43.06070 | 21.59471 | 34072 ft | 441 kts | 324° |
| 2026-05-07 16:16 | 43.11230 | 21.54956 | 34077 ft | 440 kts | 324° |
| 2026-05-07 16:17 | 43.16419 | 21.50405 | 34080 ft | 447 kts | 324° |
| 2026-05-07 16:17 | 43.21689 | 21.45773 | 34074 ft | 452 kts | 324° |
| 2026-05-07 16:18 | 43.26975 | 21.41122 | 34062 ft | 451 kts | 324° |
| 2026-05-07 16:18 | 43.32261 | 21.36460 | 34070 ft | 449 kts | 324° |
| 2026-05-07 16:19 | 43.37453 | 21.31874 | 34031 ft | 442 kts | 323° |
| 2026-05-07 16:19 | 43.42666 | 21.27252 | 34054 ft | 450 kts | 323° |
| 2026-05-07 16:20 | 43.47948 | 21.22560 | 34039 ft | 453 kts | 323° |
| 2026-05-07 16:20 | 43.53248 | 21.17846 | 34038 ft | 454 kts | 323° |
| 2026-05-07 16:21 | 43.58505 | 21.13163 | 34027 ft | 442 kts | 324° |
| 2026-05-07 16:21 | 43.63661 | 21.08557 | 34037 ft | 443 kts | 323° |
| 2026-05-07 16:22 | 43.68854 | 21.03903 | 34037 ft | 447 kts | 323° |
| 2026-05-07 16:22 | 43.74096 | 20.99208 | 34036 ft | 451 kts | 323° |
| 2026-05-07 16:23 | 43.79364 | 20.94465 | 34047 ft | 451 kts | 323° |
| 2026-05-07 16:23 | 43.84566 | 20.89777 | 34028 ft | 443 kts | 323° |
| 2026-05-07 16:24 | 43.89742 | 20.85099 | 34034 ft | 445 kts | 323° |
| 2026-05-07 16:24 | 43.94902 | 20.80423 | 34033 ft | 447 kts | 323° |
| 2026-05-07 16:25 | 44.00111 | 20.75694 | 34031 ft | 448 kts | 323° |
| 2026-05-07 16:25 | 44.05333 | 20.70943 | 34033 ft | 449 kts | 323° |
| 2026-05-07 16:26 | 44.10565 | 20.66174 | 34022 ft | 450 kts | 323° |
| 2026-05-07 16:26 | 44.15794 | 20.61398 | 34018 ft | 449 kts | 323° |
| 2026-05-07 16:27 | 44.21016 | 20.56617 | 34033 ft | 449 kts | 323° |
| 2026-05-07 16:27 | 44.26235 | 20.51829 | 34039 ft | 449 kts | 323° |
| 2026-05-07 16:28 | 44.31448 | 20.47036 | 34032 ft | 449 kts | 323° |
| 2026-05-07 16:28 | 44.36660 | 20.42232 | 34023 ft | 448 kts | 323° |
| 2026-05-07 16:29 | 44.41861 | 20.37429 | 34023 ft | 448 kts | 323° |
| 2026-05-07 16:29 | 44.47057 | 20.32620 | 34025 ft | 448 kts | 323° |
| 2026-05-07 16:30 | 44.52248 | 20.27806 | 34033 ft | 448 kts | 322° |
| 2026-05-07 16:30 | 44.56563 | 20.23795 | 34022 ft | 448 kts | 323° |
| 2026-05-07 16:31 | 44.61754 | 20.18960 | 34022 ft | 448 kts | 323° |
| 2026-05-07 16:31 | 44.66948 | 20.14114 | 34020 ft | 448 kts | 322° |
| 2026-05-07 16:32 | 44.72137 | 20.09261 | 34023 ft | 448 kts | 322° |
| 2026-05-07 16:32 | 44.77327 | 20.04395 | 34027 ft | 449 kts | 322° |
| 2026-05-07 16:33 | 44.82530 | 19.99507 | 34008 ft | 450 kts | 322° |
| 2026-05-07 16:33 | 44.87744 | 19.94598 | 34000 ft | 451 kts | 322° |
| 2026-05-07 16:34 | 44.92968 | 19.89669 | 33998 ft | 452 kts | 322° |
| 2026-05-07 16:34 | 44.98203 | 19.84718 | 34019 ft | 453 kts | 322° |
| 2026-05-07 16:35 | 45.03451 | 19.79744 | 34011 ft | 455 kts | 322° |
| 2026-05-07 16:35 | 45.08710 | 19.74748 | 34007 ft | 456 kts | 322° |
| 2026-05-07 16:36 | 45.13981 | 19.69730 | 34005 ft | 457 kts | 322° |
| 2026-05-07 16:36 | 45.19257 | 19.64696 | 34007 ft | 458 kts | 321° |
| 2026-05-07 16:37 | 45.24520 | 19.59665 | 34014 ft | 451 kts | 321° |
| 2026-05-07 16:37 | 45.29662 | 19.54742 | 34002 ft | 445 kts | 321° |
| 2026-05-07 16:38 | 45.34802 | 19.49798 | 34007 ft | 447 kts | 321° |
| 2026-05-07 16:38 | 45.39963 | 19.44825 | 34007 ft | 449 kts | 321° |
| 2026-05-07 16:39 | 45.45146 | 19.39823 | 34007 ft | 451 kts | 321° |
| 2026-05-07 16:39 | 45.50335 | 19.34805 | 34001 ft | 451 kts | 321° |
| 2026-05-07 16:40 | 45.55531 | 19.29768 | 34003 ft | 452 kts | 321° |
| 2026-05-07 16:40 | 45.60726 | 19.24720 | 34010 ft | 452 kts | 321° |
| 2026-05-07 16:41 | 45.65921 | 19.19662 | 34007 ft | 452 kts | 321° |
| 2026-05-07 16:41 | 45.71108 | 19.14599 | 34033 ft | 451 kts | 320° |
| 2026-05-07 16:42 | 45.76288 | 19.09531 | 34007 ft | 450 kts | 320° |
| 2026-05-07 16:42 | 45.81457 | 19.04462 | 34002 ft | 449 kts | 320° |
| 2026-05-07 16:43 | 45.86606 | 18.99401 | 34002 ft | 448 kts | 320° |
| 2026-05-07 16:43 | 45.91730 | 18.94337 | 34003 ft | 446 kts | 318° |
| 2026-05-07 16:44 | 45.96062 | 18.88203 | 34043 ft | 434 kts | 304° |
| 2026-05-07 16:44 | 45.99873 | 18.81448 | 34056 ft | 438 kts | 303° |
| 2026-05-07 16:44 | 46.01791 | 18.78035 | 34243 ft | 438 kts | 303° |
| 2026-05-07 16:45 | 46.03684 | 18.74682 | 34530 ft | 437 kts | 304° |
| 2026-05-07 16:45 | 46.05602 | 18.71303 | 34755 ft | 437 kts | 304° |
| 2026-05-07 16:45 | 46.07530 | 18.67911 | 34936 ft | 438 kts | 304° |
| 2026-05-07 16:45 | 46.09460 | 18.64523 | 35136 ft | 437 kts | 304° |
| 2026-05-07 16:46 | 46.11386 | 18.61141 | 35396 ft | 436 kts | 304° |
| 2026-05-07 16:46 | 46.13312 | 18.57759 | 35679 ft | 435 kts | 304° |
| 2026-05-07 16:46 | 46.15228 | 18.54392 | 35938 ft | 434 kts | 304° |
| 2026-05-07 16:46 | 46.17140 | 18.51025 | 36113 ft | 434 kts | 304° |
| 2026-05-07 16:47 | 46.19054 | 18.47647 | 36262 ft | 435 kts | 304° |
| 2026-05-07 16:47 | 46.20969 | 18.44265 | 36455 ft | 435 kts | 304° |
| 2026-05-07 16:47 | 46.22881 | 18.40884 | 36659 ft | 434 kts | 304° |
| 2026-05-07 16:47 | 46.24791 | 18.37503 | 36817 ft | 435 kts | 304° |
| 2026-05-07 16:48 | 46.26703 | 18.34114 | 36987 ft | 435 kts | 304° |
| 2026-05-07 16:48 | 46.28610 | 18.30730 | 37198 ft | 434 kts | 304° |
| 2026-05-07 16:48 | 46.30515 | 18.27347 | 37415 ft | 434 kts | 303° |
| 2026-05-07 16:48 | 46.32418 | 18.23960 | 37537 ft | 435 kts | 304° |
| 2026-05-07 16:49 | 46.34328 | 18.20557 | 37667 ft | 436 kts | 304° |
| 2026-05-07 16:49 | 46.36239 | 18.17148 | 37790 ft | 437 kts | 304° |
| 2026-05-07 16:49 | 46.38151 | 18.13734 | 37956 ft | 436 kts | 304° |
| 2026-05-07 16:50 | 46.41979 | 18.06887 | 37989 ft | 438 kts | 304° |
| 2026-05-07 16:50 | 46.45808 | 18.00021 | 37982 ft | 437 kts | 304° |
| 2026-05-07 16:51 | 46.49618 | 17.93173 | 37982 ft | 436 kts | 303° |
| 2026-05-07 16:51 | 46.53408 | 17.86346 | 37986 ft | 434 kts | 303° |
| 2026-05-07 16:52 | 46.57185 | 17.79521 | 37988 ft | 433 kts | 303° |
| 2026-05-07 16:52 | 46.60952 | 17.72699 | 37982 ft | 432 kts | 303° |
| 2026-05-07 16:53 | 46.64702 | 17.65891 | 38000 ft | 431 kts | 303° |
| 2026-05-07 16:53 | 46.68446 | 17.59075 | 37978 ft | 431 kts | 303° |
| 2026-05-07 16:54 | 46.72184 | 17.52255 | 37971 ft | 431 kts | 303° |
| 2026-05-07 16:54 | 46.75917 | 17.45426 | 37970 ft | 431 kts | 303° |
| 2026-05-07 16:55 | 46.79654 | 17.38572 | 37970 ft | 432 kts | 303° |
| 2026-05-07 16:55 | 46.83395 | 17.31696 | 37981 ft | 433 kts | 303° |
| 2026-05-07 16:56 | 46.87148 | 17.24779 | 37967 ft | 435 kts | 303° |
| 2026-05-07 16:56 | 46.92799 | 17.14332 | 37977 ft | 438 kts | 303° |
| 2026-05-07 16:57 | 46.96581 | 17.07317 | 37964 ft | 440 kts | 303° |
| 2026-05-07 16:57 | 47.00375 | 17.00264 | 37957 ft | 442 kts | 302° |
| 2026-05-07 16:58 | 47.04178 | 16.93175 | 37959 ft | 443 kts | 302° |
| 2026-05-07 16:58 | 47.07990 | 16.86054 | 37953 ft | 444 kts | 302° |
| 2026-05-07 16:59 | 47.11804 | 16.78908 | 37944 ft | 445 kts | 302° |
| 2026-05-07 16:59 | 47.15589 | 16.71797 | 37942 ft | 445 kts | 302° |
| 2026-05-07 17:00 | 47.19398 | 16.64624 | 37951 ft | 445 kts | 302° |
| 2026-05-07 17:00 | 47.23198 | 16.57447 | 37968 ft | 445 kts | 302° |
| 2026-05-07 17:01 | 47.26993 | 16.50264 | 37952 ft | 444 kts | 302° |
| 2026-05-07 17:01 | 47.30824 | 16.43119 | 37956 ft | 445 kts | 304° |
| 2026-05-07 17:02 | 47.34775 | 16.36110 | 37962 ft | 445 kts | 304° |
| 2026-05-07 17:02 | 47.38736 | 16.29104 | 37963 ft | 444 kts | 304° |
| 2026-05-07 17:03 | 47.42671 | 16.22087 | 37973 ft | 443 kts | 304° |
| 2026-05-07 17:03 | 47.46589 | 16.15051 | 37976 ft | 443 kts | 304° |
| 2026-05-07 17:04 | 47.50494 | 16.08012 | 37980 ft | 442 kts | 304° |
| 2026-05-07 17:04 | 47.54389 | 16.00972 | 37993 ft | 442 kts | 304° |
| 2026-05-07 17:05 | 47.58277 | 15.93930 | 37989 ft | 441 kts | 304° |
| 2026-05-07 17:05 | 47.62151 | 15.86894 | 37999 ft | 440 kts | 304° |
| 2026-05-07 17:06 | 47.66019 | 15.79851 | 37996 ft | 440 kts | 304° |
| 2026-05-07 17:06 | 47.69885 | 15.72792 | 38016 ft | 441 kts | 304° |
| 2026-05-07 17:07 | 47.73749 | 15.65718 | 38008 ft | 442 kts | 304° |
| 2026-05-07 17:07 | 47.77616 | 15.58621 | 38001 ft | 442 kts | 304° |
| 2026-05-07 17:08 | 47.81477 | 15.51517 | 37991 ft | 441 kts | 304° |
| 2026-05-07 17:08 | 47.85329 | 15.44412 | 38004 ft | 441 kts | 304° |
| 2026-05-07 17:09 | 47.89146 | 15.37353 | 38006 ft | 440 kts | 304° |
| 2026-05-07 17:09 | 47.92989 | 15.30224 | 37999 ft | 442 kts | 304° |
| 2026-05-07 17:10 | 47.96841 | 15.23060 | 37994 ft | 443 kts | 304° |
| 2026-05-07 17:10 | 48.00694 | 15.15877 | 37998 ft | 444 kts | 304° |
| 2026-05-07 17:11 | 48.04549 | 15.08670 | 37998 ft | 444 kts | 304° |
| 2026-05-07 17:11 | 48.08402 | 15.01450 | 38003 ft | 444 kts | 304° |
| 2026-05-07 17:12 | 48.12253 | 14.94211 | 37999 ft | 445 kts | 304° |
| 2026-05-07 17:12 | 48.16102 | 14.86958 | 37997 ft | 445 kts | 304° |
| 2026-05-07 17:13 | 48.19951 | 14.79687 | 37999 ft | 446 kts | 304° |
| 2026-05-07 17:13 | 48.23800 | 14.72395 | 38002 ft | 446 kts | 304° |
| 2026-05-07 17:14 | 48.27647 | 14.65086 | 38011 ft | 447 kts | 304° |
| 2026-05-07 17:14 | 48.31496 | 14.57755 | 38014 ft | 447 kts | 304° |
| 2026-05-07 17:15 | 48.35341 | 14.50409 | 38011 ft | 447 kts | 304° |
| 2026-05-07 17:15 | 48.38535 | 14.44295 | 38008 ft | 447 kts | 304° |
| 2026-05-07 17:16 | 48.42369 | 14.36934 | 38004 ft | 447 kts | 304° |
| 2026-05-07 17:16 | 48.46818 | 14.28369 | 38022 ft | 446 kts | 304° |
| 2026-05-07 17:17 | 48.50637 | 14.20994 | 38010 ft | 446 kts | 304° |
| 2026-05-07 17:17 | 48.53835 | 14.14803 | 38009 ft | 446 kts | 304° |
| 2026-05-07 17:18 | 48.57645 | 14.07409 | 38019 ft | 446 kts | 304° |
| 2026-05-07 17:18 | 48.61454 | 13.99995 | 38033 ft | 447 kts | 304° |
| 2026-05-07 17:19 | 48.65260 | 13.92567 | 38012 ft | 446 kts | 304° |
| 2026-05-07 17:19 | 48.69054 | 13.85143 | 38022 ft | 446 kts | 304° |
| 2026-05-07 17:20 | 48.72843 | 13.77706 | 38018 ft | 446 kts | 304° |
| 2026-05-07 17:20 | 48.76624 | 13.70332 | 38016 ft | 447 kts | 308° |
| 2026-05-07 17:21 | 48.80910 | 13.63465 | 38040 ft | 449 kts | 312° |
| 2026-05-07 17:21 | 48.85338 | 13.56766 | 38027 ft | 450 kts | 312° |
| 2026-05-07 17:22 | 48.89744 | 13.50015 | 38022 ft | 450 kts | 311° |
| 2026-05-07 17:22 | 48.94117 | 13.43211 | 38025 ft | 450 kts | 311° |
| 2026-05-07 17:23 | 48.98480 | 13.36378 | 38035 ft | 450 kts | 311° |
| 2026-05-07 17:23 | 49.02842 | 13.29528 | 38042 ft | 450 kts | 311° |
| 2026-05-07 17:24 | 49.07201 | 13.22664 | 38032 ft | 451 kts | 311° |
| 2026-05-07 17:24 | 49.11559 | 13.15787 | 38023 ft | 450 kts | 311° |
| 2026-05-07 17:25 | 49.15905 | 13.08910 | 38030 ft | 450 kts | 311° |
| 2026-05-07 17:25 | 49.20243 | 13.02027 | 38031 ft | 449 kts | 311° |
| 2026-05-07 17:26 | 49.24576 | 12.95134 | 38036 ft | 449 kts | 311° |
| 2026-05-07 17:26 | 49.28902 | 12.88230 | 38032 ft | 449 kts | 311° |
| 2026-05-07 17:27 | 49.33225 | 12.81315 | 38025 ft | 449 kts | 311° |
| 2026-05-07 17:27 | 49.37546 | 12.74396 | 38038 ft | 449 kts | 311° |
| 2026-05-07 17:28 | 49.41924 | 12.67525 | 38024 ft | 450 kts | 311° |
| 2026-05-07 17:28 | 49.46314 | 12.60670 | 38047 ft | 450 kts | 311° |
| 2026-05-07 17:29 | 49.50694 | 12.53798 | 38006 ft | 447 kts | 311° |
| 2026-05-07 17:29 | 49.52850 | 12.50405 | 37705 ft | 441 kts | 311° |
| 2026-05-07 17:29 | 49.54983 | 12.47040 | 37450 ft | 438 kts | 311° |
| 2026-05-07 17:30 | 49.57114 | 12.43670 | 37211 ft | 441 kts | 311° |
| 2026-05-07 17:30 | 49.59265 | 12.40262 | 36963 ft | 446 kts | 311° |
| 2026-05-07 17:30 | 49.61434 | 12.36821 | 36717 ft | 449 kts | 311° |
| 2026-05-07 17:30 | 49.63609 | 12.33367 | 36468 ft | 448 kts | 311° |
| 2026-05-07 17:31 | 49.65778 | 12.29920 | 36223 ft | 448 kts | 311° |
| 2026-05-07 17:31 | 49.67944 | 12.26475 | 35979 ft | 447 kts | 311° |
| 2026-05-07 17:31 | 49.70107 | 12.23027 | 35743 ft | 446 kts | 312° |
| 2026-05-07 17:31 | 49.72263 | 12.19587 | 35503 ft | 445 kts | 312° |
| 2026-05-07 17:32 | 49.74414 | 12.16150 | 35249 ft | 444 kts | 312° |
| 2026-05-07 17:32 | 49.76558 | 12.12720 | 35013 ft | 443 kts | 312° |
| 2026-05-07 17:32 | 49.78698 | 12.09290 | 34780 ft | 442 kts | 312° |
| 2026-05-07 17:32 | 49.80832 | 12.05866 | 34554 ft | 442 kts | 312° |
| 2026-05-07 17:33 | 49.82962 | 12.02444 | 34329 ft | 441 kts | 312° |
| 2026-05-07 17:33 | 49.85091 | 11.99018 | 34113 ft | 441 kts | 312° |
| 2026-05-07 17:33 | 49.89321 | 11.92197 | 34017 ft | 443 kts | 312° |
| 2026-05-07 17:34 | 49.93592 | 11.85293 | 34034 ft | 443 kts | 312° |
| 2026-05-07 17:34 | 49.97846 | 11.78397 | 34019 ft | 441 kts | 312° |
| 2026-05-07 17:35 | 50.02076 | 11.71520 | 34028 ft | 439 kts | 312° |
| 2026-05-07 17:35 | 50.06287 | 11.64659 | 34036 ft | 438 kts | 312° |
| 2026-05-07 17:36 | 50.10251 | 11.57482 | 34033 ft | 437 kts | 307° |
| 2026-05-07 17:36 | 50.13933 | 11.49936 | 34029 ft | 438 kts | 306° |
| 2026-05-07 17:37 | 50.17615 | 11.42356 | 34038 ft | 439 kts | 306° |
| 2026-05-07 17:37 | 50.21340 | 11.34785 | 34038 ft | 441 kts | 307° |
| 2026-05-07 17:38 | 50.25091 | 11.27190 | 34041 ft | 442 kts | 307° |
| 2026-05-07 17:38 | 50.28851 | 11.19564 | 34039 ft | 443 kts | 307° |
| 2026-05-07 17:39 | 50.32613 | 11.11910 | 34037 ft | 444 kts | 307° |
| 2026-05-07 17:39 | 50.36152 | 11.03994 | 34046 ft | 444 kts | 301° |
| 2026-05-07 17:40 | 50.39331 | 10.95690 | 34042 ft | 444 kts | 300° |
| 2026-05-07 17:40 | 50.42489 | 10.87362 | 34038 ft | 445 kts | 300° |
| 2026-05-07 17:41 | 50.45688 | 10.79061 | 34044 ft | 444 kts | 301° |
| 2026-05-07 17:41 | 50.48903 | 10.70774 | 34041 ft | 444 kts | 301° |
| 2026-05-07 17:42 | 50.52109 | 10.62503 | 34037 ft | 441 kts | 301° |
| 2026-05-07 17:42 | 50.53699 | 10.58392 | 33765 ft | 440 kts | 301° |
| 2026-05-07 17:42 | 50.55287 | 10.54275 | 33496 ft | 441 kts | 301° |
| 2026-05-07 17:43 | 50.56877 | 10.50146 | 33216 ft | 441 kts | 301° |
| 2026-05-07 17:43 | 50.58460 | 10.46029 | 32701 ft | 437 kts | 301° |
| 2026-05-07 17:43 | 50.60021 | 10.41961 | 32261 ft | 433 kts | 301° |
| 2026-05-07 17:43 | 50.61570 | 10.37921 | 31821 ft | 429 kts | 301° |
| 2026-05-07 17:44 | 50.63103 | 10.33915 | 31377 ft | 425 kts | 301° |
| 2026-05-07 17:44 | 50.64619 | 10.29945 | 30936 ft | 421 kts | 301° |
| 2026-05-07 17:44 | 50.66122 | 10.26006 | 30514 ft | 418 kts | 301° |
| 2026-05-07 17:44 | 50.67610 | 10.22094 | 30072 ft | 415 kts | 300° |
| 2026-05-07 17:45 | 50.69045 | 10.18218 | 29423 ft | 414 kts | 299° |
| 2026-05-07 17:45 | 50.70463 | 10.14290 | 28957 ft | 410 kts | 299° |
| 2026-05-07 17:45 | 50.71856 | 10.10399 | 28528 ft | 405 kts | 299° |
| 2026-05-07 17:45 | 50.73235 | 10.06539 | 28074 ft | 401 kts | 299° |
| 2026-05-07 17:46 | 50.74599 | 10.02721 | 27647 ft | 398 kts | 299° |
| 2026-05-07 17:46 | 50.75953 | 9.98935 | 27206 ft | 394 kts | 299° |
| 2026-05-07 17:46 | 50.77296 | 9.95182 | 26791 ft | 391 kts | 299° |
| 2026-05-07 17:46 | 50.78628 | 9.91458 | 26362 ft | 388 kts | 298° |
| 2026-05-07 17:47 | 50.79950 | 9.87760 | 25940 ft | 385 kts | 299° |
| 2026-05-07 17:47 | 50.81262 | 9.84085 | 25529 ft | 382 kts | 299° |
| 2026-05-07 17:47 | 50.82563 | 9.80437 | 25117 ft | 380 kts | 299° |
| 2026-05-07 17:47 | 50.83855 | 9.76811 | 24712 ft | 377 kts | 299° |
| 2026-05-07 17:48 | 50.85137 | 9.73205 | 24308 ft | 375 kts | 299° |
| 2026-05-07 17:48 | 50.86413 | 9.69613 | 23901 ft | 373 kts | 298° |
| 2026-05-07 17:48 | 50.87681 | 9.66037 | 23463 ft | 372 kts | 298° |
| 2026-05-07 17:48 | 50.88941 | 9.62477 | 22994 ft | 370 kts | 298° |
| 2026-05-07 17:49 | 50.90192 | 9.58941 | 22575 ft | 367 kts | 298° |
| 2026-05-07 17:49 | 50.91434 | 9.55424 | 22170 ft | 364 kts | 298° |
| 2026-05-07 17:49 | 50.92662 | 9.51941 | 21776 ft | 361 kts | 298° |
| 2026-05-07 17:49 | 50.93882 | 9.48479 | 21366 ft | 358 kts | 298° |
| 2026-05-07 17:50 | 50.95091 | 9.45040 | 20990 ft | 356 kts | 298° |
| 2026-05-07 17:50 | 50.96292 | 9.41622 | 20579 ft | 353 kts | 298° |
| 2026-05-07 17:50 | 50.97482 | 9.38228 | 20198 ft | 351 kts | 298° |
| 2026-05-07 17:50 | 50.98664 | 9.34853 | 19835 ft | 349 kts | 298° |
| 2026-05-07 17:51 | 50.99836 | 9.31506 | 19599 ft | 345 kts | 298° |
| 2026-05-07 17:51 | 51.01011 | 9.28145 | 19313 ft | 351 kts | 298° |
| 2026-05-07 17:51 | 51.02204 | 9.24725 | 19029 ft | 356 kts | 298° |
| 2026-05-07 17:51 | 51.03402 | 9.21287 | 18741 ft | 355 kts | 298° |
| 2026-05-07 17:52 | 51.04591 | 9.17869 | 18448 ft | 352 kts | 298° |
| 2026-05-07 17:52 | 51.05770 | 9.14478 | 18185 ft | 349 kts | 298° |
| 2026-05-07 17:52 | 51.06937 | 9.11114 | 17869 ft | 347 kts | 298° |
| 2026-05-07 17:52 | 51.08098 | 9.07763 | 17550 ft | 345 kts | 298° |
| 2026-05-07 17:53 | 51.09252 | 9.04428 | 17224 ft | 344 kts | 298° |
| 2026-05-07 17:53 | 51.10404 | 9.01095 | 16910 ft | 343 kts | 298° |
| 2026-05-07 17:53 | 51.11550 | 8.97776 | 16599 ft | 342 kts | 298° |
| 2026-05-07 17:53 | 51.12693 | 8.94460 | 16287 ft | 341 kts | 298° |
| 2026-05-07 17:54 | 51.13832 | 8.91152 | 15983 ft | 341 kts | 298° |
| 2026-05-07 17:54 | 51.14970 | 8.87842 | 15680 ft | 340 kts | 298° |
| 2026-05-07 17:54 | 51.16102 | 8.84545 | 15383 ft | 339 kts | 298° |
| 2026-05-07 17:54 | 51.17231 | 8.81250 | 15080 ft | 338 kts | 298° |
| 2026-05-07 17:55 | 51.18356 | 8.77967 | 14787 ft | 337 kts | 298° |
| 2026-05-07 17:55 | 51.19475 | 8.74693 | 14496 ft | 336 kts | 298° |
| 2026-05-07 17:55 | 51.20588 | 8.71435 | 14208 ft | 334 kts | 298° |
| 2026-05-07 17:55 | 51.21698 | 8.68183 | 13915 ft | 333 kts | 298° |
| 2026-05-07 17:56 | 51.22802 | 8.64941 | 13600 ft | 332 kts | 298° |
| 2026-05-07 17:56 | 51.23902 | 8.61708 | 13282 ft | 331 kts | 298° |
| 2026-05-07 17:56 | 51.24995 | 8.58491 | 12966 ft | 329 kts | 298° |
| 2026-05-07 17:56 | 51.26161 | 8.55357 | 12639 ft | 328 kts | 307° |
| 2026-05-07 17:57 | 51.27658 | 8.52609 | 12347 ft | 327 kts | 312° |
| 2026-05-07 17:57 | 51.28690 | 8.50861 | 12143 ft | 327 kts | 313° |
| 2026-05-07 17:57 | 51.30792 | 8.47351 | 11722 ft | 326 kts | 313° |
| 2026-05-07 17:57 | 51.32338 | 8.44783 | 11434 ft | 323 kts | 313° |
| 2026-05-07 17:58 | 51.33885 | 8.42211 | 11133 ft | 319 kts | 314° |
| 2026-05-07 17:58 | 51.35412 | 8.39666 | 10823 ft | 315 kts | 313° |
| 2026-05-07 17:58 | 51.36918 | 8.37151 | 10528 ft | 312 kts | 313° |
| 2026-05-07 17:58 | 51.38412 | 8.34648 | 10240 ft | 309 kts | 314° |
| 2026-05-07 17:59 | 51.39885 | 8.32170 | 9946 ft | 306 kts | 314° |
| 2026-05-07 17:59 | 51.41339 | 8.29715 | 9623 ft | 302 kts | 313° |
| 2026-05-07 17:59 | 51.42776 | 8.27288 | 9300 ft | 299 kts | 313° |
| 2026-05-07 17:59 | 51.44199 | 8.24881 | 8986 ft | 296 kts | 313° |
| 2026-05-07 18:00 | 51.45608 | 8.22500 | 8668 ft | 293 kts | 313° |
| 2026-05-07 18:00 | 51.46994 | 8.20129 | 8383 ft | 290 kts | 309° |
| 2026-05-07 18:00 | 51.47934 | 8.17321 | 8093 ft | 286 kts | 284° |
| 2026-05-07 18:00 | 51.47992 | 8.14179 | 7846 ft | 283 kts | 260° |
| 2026-05-07 18:01 | 51.47500 | 8.11148 | 7612 ft | 279 kts | 255° |
| 2026-05-07 18:01 | 51.46928 | 8.08195 | 7356 ft | 276 kts | 253° |
| 2026-05-07 18:01 | 51.46350 | 8.05275 | 7147 ft | 272 kts | 253° |
| 2026-05-07 18:01 | 51.45775 | 8.02391 | 7110 ft | 272 kts | 253° |
| 2026-05-07 18:02 | 51.44638 | 7.96674 | 7083 ft | 268 kts | 253° |
| 2026-05-07 18:02 | 51.44068 | 7.93819 | 7078 ft | 269 kts | 253° |
| 2026-05-07 18:02 | 51.43496 | 7.90958 | 7081 ft | 269 kts | 253° |
| 2026-05-07 18:03 | 51.43116 | 7.89069 | 7075 ft | 269 kts | 253° |
| 2026-05-07 18:03 | 51.42543 | 7.86228 | 7068 ft | 268 kts | 253° |
| 2026-05-07 18:03 | 51.41971 | 7.83391 | 7079 ft | 267 kts | 253° |
| 2026-05-07 18:03 | 51.41404 | 7.80574 | 7069 ft | 264 kts | 253° |
| 2026-05-07 18:04 | 51.40847 | 7.77802 | 7065 ft | 259 kts | 253° |
| 2026-05-07 18:04 | 51.40298 | 7.75075 | 7058 ft | 255 kts | 253° |
| 2026-05-07 18:04 | 51.39750 | 7.72359 | 6823 ft | 261 kts | 253° |
| 2026-05-07 18:04 | 51.39187 | 7.69569 | 6556 ft | 263 kts | 253° |
| 2026-05-07 18:05 | 51.38626 | 7.66803 | 6285 ft | 260 kts | 253° |
| 2026-05-07 18:05 | 51.38055 | 7.64050 | 5990 ft | 261 kts | 253° |
| 2026-05-07 18:05 | 51.37481 | 7.61301 | 5670 ft | 260 kts | 253° |
| 2026-05-07 18:05 | 51.36912 | 7.58563 | 5405 ft | 258 kts | 253° |
| 2026-05-07 18:06 | 51.36342 | 7.55857 | 5149 ft | 256 kts | 253° |
| 2026-05-07 18:06 | 51.35780 | 7.53175 | 4904 ft | 254 kts | 253° |
| 2026-05-07 18:06 | 51.35213 | 7.50502 | 4639 ft | 253 kts | 253° |
| 2026-05-07 18:06 | 51.34652 | 7.47840 | 4367 ft | 252 kts | 253° |
| 2026-05-07 18:07 | 51.34098 | 7.45184 | 4082 ft | 252 kts | 253° |
| 2026-05-07 18:07 | 51.33594 | 7.42496 | 3774 ft | 252 kts | 263° |
| 2026-05-07 18:07 | 51.33758 | 7.39744 | 3476 ft | 251 kts | 293° |
| 2026-05-07 18:07 | 51.34759 | 7.37534 | 3209 ft | 246 kts | 324° |
| 2026-05-07 18:08 | 51.36288 | 7.36502 | 3045 ft | 236 kts | 356° |
| 2026-05-07 18:08 | 51.37865 | 7.36714 | 3008 ft | 221 kts | 12° |
| 2026-05-07 18:08 | 51.39328 | 7.37183 | 2990 ft | 209 kts | 13° |
| 2026-05-07 18:08 | 51.40752 | 7.37666 | 3003 ft | 214 kts | 13° |
| 2026-05-07 18:09 | 51.42200 | 7.38431 | 2988 ft | 224 kts | 33° |
| 2026-05-07 18:09 | 51.43399 | 7.39998 | 2997 ft | 221 kts | 42° |
| 2026-05-07 18:09 | 51.44514 | 7.41646 | 2991 ft | 214 kts | 43° |
| 2026-05-07 18:09 | 51.45512 | 7.43296 | 2867 ft | 202 kts | 54° |
| 2026-05-07 18:10 | 51.46218 | 7.45180 | 2641 ft | 194 kts | 62° |
| 2026-05-07 18:10 | 51.46859 | 7.47056 | 2391 ft | 189 kts | 61° |
| 2026-05-07 18:10 | 51.47495 | 7.48880 | 2126 ft | 185 kts | 61° |
| 2026-05-07 18:10 | 51.48120 | 7.50658 | 1882 ft | 180 kts | 61° |
| 2026-05-07 18:11 | 51.48718 | 7.52358 | 1645 ft | 168 kts | 62° |
| 2026-05-07 18:11 | 51.49266 | 7.53933 | 1447 ft | 154 kts | 61° |
| 2026-05-07 18:11 | 51.49782 | 7.55394 | 1205 ft | 149 kts | 61° |
| 2026-05-07 18:11 | 51.50293 | 7.56846 | 999 ft | 151 kts | 61° |
| 2026-05-07 18:12 | 51.50810 | 7.58316 | 791 ft | 150 kts | 61° |
| 2026-05-07 18:12 | 51.51319 | 7.59748 | 561 ft | 146 kts | 60° |
| 2026-05-07 18:12 | 51.51801 | 7.61129 | 415 ft | 134 kts | 61° |
| 2026-05-07 18:12 | 51.52150 | 7.62125 | 410 ft | 38 kts | 60° |
| 2026-05-07 18:13 | 51.52190 | 7.62294 | 412 ft | 12 kts | 110° |
| 2026-05-07 18:13 | 51.52122 | 7.62369 | 408 ft | 12 kts | 151° |
| 2026-05-07 18:13 | 51.52058 | 7.62386 | 412 ft | 10 kts | 212° |
| 2026-05-07 18:13 | 51.52020 | 7.62301 | 414 ft | 9 kts | 244° |
| 2026-05-07 18:14 | 51.51989 | 7.62211 | 414 ft | 9 kts | 240° |
| 2026-05-07 18:14 | 51.51958 | 7.62124 | 417 ft | 9 kts | 240° |
| 2026-05-07 18:14 | 51.51927 | 7.62037 | 420 ft | 9 kts | 241° |
| 2026-05-07 18:14 | 51.51896 | 7.61949 | 421 ft | 9 kts | 240° |
| 2026-05-07 18:15 | 51.51866 | 7.61860 | 426 ft | 11 kts | 240° |
| 2026-05-07 18:15 | 51.51823 | 7.61741 | 428 ft | 13 kts | 239° |
| 2026-05-07 18:15 | 51.51779 | 7.61617 | 431 ft | 13 kts | 242° |
| 2026-05-07 18:15 | 51.51741 | 7.61527 | 436 ft | 8 kts | 226° |
| 2026-05-07 18:16 | 51.51703 | 7.61468 | 440 ft | 8 kts | 219° |
| 2026-05-07 18:16 | 51.51652 | 7.61379 | 436 ft | 14 kts | 238° |
| 2026-05-07 18:16 | 51.51611 | 7.61266 | 433 ft | 7 kts | 240° |
| 2026-05-07 18:16 | 51.51601 | 7.61239 | 436 ft | 0 kts | 240° |
| 2026-05-07 18:19 | 51.51602 | 7.61240 | 436 ft | 1 kts | 240° |
| 2026-05-07 18:19 | 51.51608 | 7.61264 | 434 ft | 5 kts | 295° |
| 2026-05-07 18:19 | 51.51594 | 7.61285 | 433 ft | 4 kts | 331° |
| 2026-05-07 18:19 | 51.51579 | 7.61298 | 427 ft | 1 kts | 330° |